createdAt,value
2023-04-16T00:02:25.568Z,3.42
2023-04-16T00:04:57.332Z,3.22
2023-04-16T00:07:28.622Z,3.17
2023-04-16T00:09:59.894Z,3.72
2023-04-16T00:12:27.775Z,3.22
2023-04-16T00:14:58.267Z,3.67
2023-04-16T00:17:33.403Z,4.68
2023-04-16T00:20:02.680Z,3.15
2023-04-16T00:22:33.365Z,4.00
2023-04-16T00:25:06.892Z,3.47
2023-04-16T00:27:41.920Z,2.67
2023-04-16T00:30:09.828Z,3.92
2023-04-16T00:32:40.949Z,3.95
2023-04-16T00:35:11.857Z,6.40
2023-04-16T00:37:42.681Z,4.45
2023-04-16T00:40:19.447Z,4.35
2023-04-16T00:42:48.686Z,2.97
2023-04-16T00:45:19.737Z,3.28
2023-04-16T00:47:53.814Z,4.93
2023-04-16T00:50:26.607Z,3.10
2023-04-16T00:52:54.313Z,4.07
2023-04-16T00:55:30.832Z,2.95
2023-04-16T00:58:05.309Z,2.35
2023-04-16T01:00:38.299Z,3.87
2023-04-16T01:05:45.761Z,3.00
2023-04-16T01:08:25.810Z,2.70
2023-04-16T01:10:54.046Z,2.95
2023-04-16T01:13:21.598Z,4.65
2023-04-16T01:15:55.886Z,2.92
2023-04-16T01:18:29.502Z,3.75
2023-04-16T01:21:01.343Z,2.40
2023-04-16T01:23:31.464Z,2.85
2023-04-16T01:26:06.024Z,1.95
2023-04-16T01:28:36.778Z,2.22
2023-04-16T01:33:55.414Z,3.10
2023-04-16T01:36:26.251Z,2.58
2023-04-16T01:38:59.686Z,3.22
2023-04-16T01:41:35.924Z,2.25
2023-04-16T01:44:04.154Z,2.83
2023-04-16T01:46:36.532Z,2.17
2023-04-16T01:49:08.682Z,2.55
2023-04-16T01:51:39.238Z,4.22
2023-04-16T01:54:11.690Z,2.42
2023-04-16T01:56:39.981Z,2.83
2023-04-16T01:59:10.890Z,2.50
2023-04-16T02:01:39.171Z,1.98
2023-04-16T02:04:10.646Z,3.05
2023-04-16T02:06:41.042Z,2.78
2023-04-16T02:09:10.116Z,2.25
2023-04-16T02:11:40.302Z,2.40
2023-04-16T02:14:10.860Z,1.42
2023-04-16T02:16:39.040Z,2.50
2023-04-16T02:19:07.234Z,2.28
2023-04-16T02:21:35.420Z,1.80
2023-04-16T02:24:08.522Z,2.12
2023-04-16T02:29:06.721Z,3.80
2023-04-16T02:31:34.448Z,2.08
2023-04-16T02:34:02.763Z,3.08
2023-04-16T02:36:33.090Z,2.80
2023-04-16T02:39:02.483Z,2.08
2023-04-16T02:41:32.864Z,2.33
2023-04-16T02:44:04.405Z,2.30
2023-04-16T02:46:33.666Z,2.70
2023-04-16T02:49:03.168Z,3.22
2023-04-16T02:51:34.080Z,1.90
2023-04-16T02:54:01.448Z,1.90
2023-04-16T02:56:33.539Z,2.30
2023-04-16T02:59:01.180Z,1.90
2023-04-16T03:01:31.648Z,1.75
2023-04-16T03:04:03.045Z,2.58
2023-04-16T03:06:33.884Z,1.40
2023-04-16T03:09:08.347Z,2.05
2023-04-16T03:11:45.206Z,2.05
2023-04-16T03:14:15.731Z,1.80
2023-04-16T03:16:47.352Z,1.87
2023-04-16T03:19:22.553Z,1.65
2023-04-16T03:21:56.378Z,2.05
2023-04-16T03:24:33.748Z,2.80
2023-04-16T03:27:09.662Z,1.95
2023-04-16T03:29:40.684Z,1.65
2023-04-16T03:32:14.543Z,1.52
2023-04-16T03:34:46.361Z,1.62
2023-04-16T03:37:16.901Z,1.98
2023-04-16T03:39:47.868Z,2.17
2023-04-16T03:42:19.024Z,1.67
2023-04-16T03:44:51.845Z,1.80
2023-04-16T03:47:24.942Z,1.60
2023-04-16T03:52:32.107Z,2.28
2023-04-16T03:55:02.800Z,1.77
2023-04-16T03:57:41.478Z,2.42
2023-04-16T04:00:14.637Z,1.85
2023-04-16T04:05:22.148Z,2.15
2023-04-16T04:07:51.027Z,1.50
2023-04-16T04:10:23.697Z,2.22
2023-04-16T04:13:00.565Z,1.55
2023-04-16T04:15:31.013Z,1.65
2023-04-16T04:18:01.505Z,1.60
2023-04-16T04:20:29.661Z,1.98
2023-04-16T04:23:00.558Z,1.67
2023-04-16T04:25:28.156Z,1.75
2023-04-16T04:27:58.427Z,1.83
2023-04-16T04:30:28.982Z,1.60
2023-04-16T04:33:02.370Z,1.20
2023-04-16T04:35:37.591Z,2.33
2023-04-16T04:38:09.274Z,2.00
2023-04-16T04:40:45.415Z,1.25
2023-04-16T04:43:21.381Z,1.83
2023-04-16T04:45:55.295Z,2.45
2023-04-16T04:48:25.147Z,1.95
2023-04-16T04:50:55.638Z,1.85
2023-04-16T04:53:26.675Z,1.48
2023-04-16T04:56:12.304Z,1.95
2023-04-16T04:58:46.293Z,1.20
2023-04-16T05:01:17.322Z,1.15
2023-04-16T05:03:51.097Z,1.73
2023-04-16T05:06:32.069Z,1.73
2023-04-16T05:09:03.916Z,1.62
2023-04-16T05:11:39.801Z,1.20
2023-04-16T05:14:09.953Z,1.75
2023-04-16T05:16:47.973Z,1.98
2023-04-16T05:19:16.203Z,1.60
2023-04-16T05:21:49.480Z,2.58
2023-04-16T05:24:19.725Z,1.90
2023-04-16T05:26:50.855Z,2.17
2023-04-16T05:29:24.592Z,1.77
2023-04-16T05:32:01.244Z,1.25
2023-04-16T05:34:35.086Z,1.30
2023-04-16T05:37:09.371Z,1.55
2023-04-16T05:39:41.879Z,3.03
2023-04-16T05:42:11.817Z,1.65
2023-04-16T05:44:47.843Z,2.97
2023-04-16T05:47:18.129Z,1.62
2023-04-16T05:49:52.213Z,2.75
2023-04-16T05:52:27.977Z,2.08
2023-04-16T05:54:58.984Z,1.60
2023-04-16T05:57:26.292Z,2.97
2023-04-16T06:00:02.634Z,3.10
2023-04-16T06:02:32.424Z,4.20
2023-04-16T06:05:02.286Z,3.15
2023-04-16T06:07:29.599Z,4.15
2023-04-16T06:09:56.568Z,3.72
2023-04-16T06:12:29.955Z,4.85
2023-04-16T06:15:00.231Z,3.90
2023-04-16T06:17:28.647Z,3.45
2023-04-16T06:19:59.607Z,2.35
2023-04-16T06:22:33.362Z,3.53
2023-04-16T06:25:03.801Z,2.22
2023-04-16T06:27:32.591Z,3.62
2023-04-16T06:30:02.855Z,3.08
2023-04-16T06:32:34.099Z,2.58
2023-04-16T06:35:08.085Z,5.03
2023-04-16T06:37:37.946Z,7.68
2023-04-16T06:40:07.785Z,5.00
2023-04-16T06:42:38.419Z,9.43
2023-04-16T06:45:09.339Z,7.65
2023-04-16T06:47:39.828Z,8.13
2023-04-16T06:50:13.948Z,7.78
2023-04-16T06:52:46.658Z,7.55
2023-04-16T06:55:17.419Z,4.55
2023-04-16T06:57:47.479Z,7.68
2023-04-16T07:00:17.581Z,4.18
2023-04-16T07:02:46.333Z,6.97
2023-04-16T07:05:16.444Z,5.47
2023-04-16T07:07:43.457Z,5.37
2023-04-16T07:10:16.606Z,5.00
2023-04-16T07:15:14.184Z,4.93
2023-04-16T07:17:45.014Z,4.07
2023-04-16T07:20:12.266Z,6.25
2023-04-16T07:22:48.389Z,4.45
2023-04-16T07:25:24.401Z,8.73
2023-04-16T07:27:51.777Z,4.55
2023-04-16T07:30:31.357Z,9.02
2023-04-16T07:33:04.579Z,4.68
2023-04-16T07:35:34.882Z,4.12
2023-04-16T07:38:01.982Z,4.80
2023-04-16T07:40:32.939Z,3.92
2023-04-16T07:43:10.671Z,4.30
2023-04-16T07:45:43.682Z,4.57
2023-04-16T07:50:47.973Z,5.57
2023-04-16T07:53:20.498Z,4.70
2023-04-16T07:55:50.090Z,5.32
2023-04-16T07:58:17.467Z,5.05
2023-04-16T08:00:51.809Z,4.68
2023-04-16T08:03:24.580Z,10.00
2023-04-16T08:08:31.343Z,6.87
2023-04-16T08:11:01.412Z,4.45
2023-04-16T08:13:30.075Z,5.75
2023-04-16T08:16:05.178Z,5.28
2023-04-16T08:18:36.849Z,5.78
2023-04-16T08:21:05.265Z,8.75
2023-04-16T08:23:44.298Z,6.00
2023-04-16T08:26:24.233Z,7.22
2023-04-16T08:29:14.998Z,14.73
2023-04-16T08:31:54.806Z,15.07
2023-04-16T08:34:24.689Z,14.05
2023-04-16T08:36:57.278Z,12.63
2023-04-16T08:39:30.653Z,25.40
2023-04-16T08:42:05.166Z,25.65
2023-04-16T08:44:49.326Z,20.95
2023-04-16T08:47:28.916Z,21.33
2023-04-16T08:50:03.549Z,23.85
2023-04-16T08:52:48.321Z,24.65
2023-04-16T08:55:18.947Z,23.00
2023-04-16T08:57:58.266Z,27.08
2023-04-16T09:00:35.450Z,23.85
2023-04-16T09:03:06.447Z,21.77
2023-04-16T09:05:37.050Z,26.42
2023-04-16T09:08:08.738Z,26.62
2023-04-16T09:10:35.804Z,31.70
2023-04-16T09:13:03.331Z,22.70
2023-04-16T09:15:35.223Z,20.95
2023-04-16T09:18:08.563Z,25.52
2023-04-16T09:20:38.624Z,26.12
2023-04-16T09:23:10.740Z,25.12
2023-04-16T09:25:43.053Z,20.88
2023-04-16T09:28:13.455Z,23.38
2023-04-16T09:30:40.663Z,17.55
2023-04-16T09:33:26.835Z,17.23
2023-04-16T09:35:53.875Z,20.90
2023-04-16T09:38:26.600Z,22.08
2023-04-16T09:41:12.646Z,22.45
2023-04-16T09:43:43.327Z,22.58
2023-04-16T09:46:17.322Z,21.45
2023-04-16T09:48:50.129Z,17.48
2023-04-16T09:51:17.276Z,18.98
2023-04-16T09:53:50.548Z,19.48
2023-04-16T09:56:18.665Z,16.83
2023-04-16T09:58:57.538Z,22.27
2023-04-16T10:01:30.776Z,21.23
2023-04-16T10:04:14.121Z,16.92
2023-04-16T10:06:50.385Z,20.92
2023-04-16T10:09:26.133Z,20.90
2023-04-16T10:11:59.878Z,20.75
2023-04-16T10:14:33.916Z,21.48
2023-04-16T10:17:09.886Z,18.17
2023-04-16T10:19:47.128Z,21.80
2023-04-16T10:22:36.991Z,20.33
2023-04-16T10:25:10.421Z,24.20
2023-04-16T10:27:43.962Z,17.37
2023-04-16T10:30:18.656Z,21.60
2023-04-16T10:32:53.884Z,19.85
2023-04-16T10:35:32.529Z,19.20
2023-04-16T10:38:30.744Z,21.60
2023-04-16T10:41:10.919Z,24.30
2023-04-16T10:43:47.180Z,26.73
2023-04-16T10:46:26.886Z,29.87
2023-04-16T10:49:02.122Z,21.70
2023-04-16T10:51:34.988Z,24.77
2023-04-16T10:54:11.209Z,22.65
2023-04-16T10:56:44.545Z,22.92
2023-04-16T10:59:20.002Z,25.12
2023-04-16T11:02:04.314Z,22.17
2023-04-16T11:04:39.966Z,27.20
2023-04-16T11:07:26.974Z,21.42
2023-04-16T11:10:00.175Z,19.37
2023-04-16T11:12:34.065Z,22.35
2023-04-16T11:15:12.807Z,35.78
2023-04-16T11:17:48.282Z,19.20
2023-04-16T11:20:29.847Z,26.95
2023-04-16T11:22:58.999Z,27.10
2023-04-16T11:25:32.268Z,20.30
2023-04-16T11:28:06.928Z,24.63
2023-04-16T11:30:37.624Z,26.55
2023-04-16T11:33:18.238Z,23.58
2023-04-16T11:35:58.254Z,25.05
2023-04-16T11:38:42.227Z,26.42
2023-04-16T11:41:11.580Z,26.75
2023-04-16T11:43:50.002Z,23.92
2023-04-16T11:46:27.493Z,26.27
2023-04-16T11:49:04.107Z,26.37
2023-04-16T11:51:48.629Z,25.05
2023-04-16T11:54:32.706Z,24.98
2023-04-16T11:57:06.157Z,24.50
2023-04-16T12:00:01.743Z,25.73
2023-04-16T12:02:40.753Z,29.23
2023-04-16T12:05:30.923Z,27.87
2023-04-16T12:08:07.004Z,31.65
2023-04-16T12:10:57.879Z,22.92
2023-04-16T12:13:32.601Z,25.62
2023-04-16T12:16:00.303Z,28.45
2023-04-16T12:18:29.888Z,28.40
2023-04-16T12:21:17.385Z,26.52
2023-04-16T12:23:56.382Z,26.40
2023-04-16T12:26:45.939Z,30.70
2023-04-16T12:29:29.368Z,24.95
2023-04-16T12:31:56.831Z,27.95
2023-04-16T12:34:48.442Z,29.77
2023-04-16T12:37:26.426Z,26.90
2023-04-16T12:39:59.739Z,27.45
2023-04-16T12:42:30.272Z,27.98
2023-04-16T12:45:16.437Z,29.00
2023-04-16T12:47:52.770Z,25.30
2023-04-16T12:50:31.692Z,24.60
2023-04-16T12:53:14.442Z,27.23
2023-04-16T12:55:49.608Z,26.58
2023-04-16T12:58:20.159Z,28.08
2023-04-16T13:01:03.787Z,27.58
2023-04-16T13:03:54.851Z,28.50
2023-04-16T13:06:36.845Z,31.27
2023-04-16T13:09:44.463Z,31.17
2023-04-16T13:12:32.789Z,33.75
2023-04-16T13:15:33.078Z,28.30
2023-04-16T13:18:23.572Z,28.73
2023-04-16T13:21:16.208Z,27.58
2023-04-16T13:24:09.633Z,31.47
2023-04-16T13:29:45.743Z,30.05
2023-04-16T13:32:50.476Z,30.75
2023-04-16T13:35:36.884Z,27.92
2023-04-16T13:38:20.110Z,29.52
2023-04-16T13:40:54.700Z,29.40
2023-04-16T13:43:26.581Z,27.58
2023-04-16T13:45:58.868Z,30.80
2023-04-16T13:48:30.879Z,27.45
2023-04-16T13:51:01.207Z,31.93
2023-04-16T13:53:30.294Z,29.08
2023-04-16T13:56:03.291Z,30.33
2023-04-16T14:00:57.306Z,27.33
2023-04-16T14:03:29.466Z,29.48
2023-04-16T14:06:05.510Z,28.07
2023-04-16T14:08:38.791Z,29.05
2023-04-16T14:11:12.881Z,28.65
2023-04-16T14:13:46.352Z,25.73
2023-04-16T14:16:19.991Z,25.70
2023-04-16T14:18:51.675Z,24.23
2023-04-16T14:21:22.421Z,24.58
2023-04-16T14:23:54.116Z,29.33
2023-04-16T14:26:28.313Z,26.45
2023-04-16T14:28:55.919Z,23.62
2023-04-16T14:31:27.193Z,19.48
2023-04-16T14:33:54.902Z,22.20
2023-04-16T14:36:28.492Z,22.17
2023-04-16T14:38:59.492Z,23.15
2023-04-16T14:41:31.277Z,22.35
2023-04-16T14:44:02.712Z,22.70
2023-04-16T14:46:33.067Z,25.90
2023-04-16T14:49:01.000Z,19.05
2023-04-16T14:51:28.674Z,18.40
2023-04-16T14:53:57.004Z,33.38
2023-04-16T14:56:33.791Z,26.20
2023-04-16T14:59:07.761Z,21.55
2023-04-16T15:01:37.993Z,16.85
2023-04-16T15:04:14.748Z,27.85
2023-04-16T15:06:42.401Z,21.58
2023-04-16T15:09:12.590Z,30.67
2023-04-16T15:11:47.104Z,19.80
2023-04-16T15:14:19.243Z,26.65
2023-04-16T15:16:47.918Z,22.77
2023-04-16T15:19:18.695Z,21.65
2023-04-16T15:21:48.989Z,20.20
2023-04-16T15:24:26.373Z,21.02
2023-04-16T15:26:55.698Z,19.05
2023-04-16T15:29:29.887Z,20.48
2023-04-16T15:32:00.016Z,36.20
2023-04-16T15:34:33.932Z,24.20
2023-04-16T15:37:02.195Z,19.90
2023-04-16T15:39:32.620Z,31.52
2023-04-16T15:42:03.519Z,27.02
2023-04-16T15:44:32.268Z,18.87
2023-04-16T15:47:02.975Z,23.08
2023-04-16T15:49:33.015Z,18.20
2023-04-16T15:52:01.146Z,27.20
2023-04-16T15:54:32.748Z,26.77
2023-04-16T15:57:01.040Z,20.48
2023-04-16T15:59:32.286Z,22.15
2023-04-16T16:02:03.114Z,19.77
2023-04-16T16:04:30.941Z,22.30
2023-04-16T16:07:02.453Z,26.60
2023-04-16T16:09:33.455Z,27.02
2023-04-16T16:12:07.976Z,22.02
2023-04-16T16:14:43.269Z,19.10
2023-04-16T16:17:10.687Z,22.65
2023-04-16T16:19:38.050Z,20.45
2023-04-16T16:22:09.109Z,24.90
2023-04-16T16:24:42.135Z,19.98
2023-04-16T16:29:39.916Z,18.25
2023-04-16T16:32:10.543Z,21.65
2023-04-16T16:34:40.380Z,15.40
2023-04-16T16:37:10.489Z,17.62
2023-04-16T16:39:43.969Z,15.07
2023-04-16T16:42:11.032Z,16.30
2023-04-16T16:44:40.673Z,22.02
2023-04-16T16:47:13.266Z,16.45
2023-04-16T16:49:48.271Z,22.85
2023-04-16T16:52:19.605Z,25.65
2023-04-16T16:54:46.545Z,20.23
2023-04-16T16:57:16.250Z,46.60
2023-04-16T16:59:46.899Z,22.05
2023-04-16T17:02:25.850Z,18.58
2023-04-16T17:04:52.981Z,17.12
2023-04-16T17:07:20.393Z,25.15
2023-04-16T17:09:53.669Z,13.20
2023-04-16T17:12:26.621Z,19.20
2023-04-16T17:17:37.772Z,15.73
2023-04-16T17:20:07.017Z,18.70
2023-04-16T17:22:41.915Z,16.10
2023-04-16T17:25:11.724Z,16.37
2023-04-16T17:27:41.744Z,24.42
2023-04-16T17:30:21.982Z,21.70
2023-04-16T17:32:51.037Z,24.80
2023-04-16T17:35:18.060Z,24.48
2023-04-16T17:37:52.469Z,11.82
2023-04-16T17:40:24.316Z,12.07
2023-04-16T17:42:52.322Z,12.30
2023-04-16T17:45:27.823Z,15.35
2023-04-16T17:47:54.923Z,26.17
2023-04-16T17:50:25.895Z,16.48
2023-04-16T17:52:56.169Z,16.60
2023-04-16T17:55:23.079Z,16.05
2023-04-16T17:57:54.056Z,12.43
2023-04-16T18:00:25.333Z,12.93
2023-04-16T18:02:52.860Z,16.87
2023-04-16T18:05:26.277Z,15.77
2023-04-16T18:08:03.297Z,14.52
2023-04-16T18:10:37.918Z,11.15
2023-04-16T18:13:09.510Z,14.98
2023-04-16T18:15:42.815Z,10.55
2023-04-16T18:18:13.477Z,12.55
2023-04-16T18:20:44.319Z,16.67
2023-04-16T18:23:12.351Z,13.82
2023-04-16T18:25:43.214Z,8.60
2023-04-16T18:28:13.611Z,9.15
2023-04-16T18:30:44.837Z,10.13
2023-04-16T18:33:42.763Z,10.70
2023-04-16T18:36:03.178Z,7.90
2023-04-16T18:38:43.581Z,5.60
2023-04-16T18:41:28.316Z,10.48
2023-04-16T18:44:01.700Z,6.60
2023-04-16T18:46:34.258Z,7.43
2023-04-16T18:49:02.347Z,8.90
2023-04-16T18:51:29.697Z,6.30
2023-04-16T18:53:57.583Z,6.43
2023-04-16T18:56:24.972Z,9.55
2023-04-16T18:59:01.655Z,8.85
2023-04-16T19:01:29.194Z,11.93
2023-04-16T19:04:07.435Z,8.32
2023-04-16T19:06:35.365Z,10.45
2023-04-16T19:09:05.560Z,7.80
2023-04-16T19:11:38.647Z,12.88
2023-04-16T19:16:36.938Z,12.55
2023-04-16T19:19:04.167Z,10.80
2023-04-16T19:21:31.446Z,8.13
2023-04-16T19:23:59.660Z,9.52
2023-04-16T19:26:29.886Z,11.77
2023-04-16T19:29:00.690Z,12.32
2023-04-16T19:31:34.174Z,11.57
2023-04-16T19:34:05.436Z,7.22
2023-04-16T19:36:36.255Z,9.20
2023-04-16T19:39:09.975Z,9.50
2023-04-16T19:41:44.627Z,9.30
2023-04-16T19:44:15.208Z,9.40
2023-04-16T19:46:43.281Z,9.80
2023-04-16T19:49:16.614Z,11.32
2023-04-16T19:51:50.542Z,8.25
2023-04-16T19:54:23.454Z,9.57
2023-04-16T19:56:59.961Z,6.93
2023-04-16T19:59:33.012Z,6.47
2023-04-16T20:04:35.642Z,7.47
2023-04-16T20:07:03.179Z,8.00
2023-04-16T20:09:34.432Z,7.15
2023-04-16T20:12:04.987Z,7.20
2023-04-16T20:14:35.372Z,8.68
2023-04-16T20:17:03.112Z,9.32
2023-04-16T20:19:38.049Z,7.57
2023-04-16T20:22:05.665Z,7.70
2023-04-16T20:24:33.253Z,6.15
2023-04-16T20:27:06.991Z,4.65
2023-04-16T20:29:37.047Z,6.47
2023-04-16T20:32:07.703Z,8.35
2023-04-16T20:34:38.617Z,7.50
2023-04-16T20:37:09.333Z,8.52
2023-04-16T20:39:41.261Z,6.00
2023-04-16T20:42:17.325Z,6.68
2023-04-16T20:44:56.924Z,6.47
2023-04-16T20:47:27.671Z,5.80
2023-04-16T20:49:55.475Z,4.57
2023-04-16T20:52:29.682Z,5.78
2023-04-16T20:55:03.762Z,7.30
2023-04-16T20:57:35.548Z,9.95
2023-04-16T21:00:06.087Z,4.07
2023-04-16T21:02:41.566Z,6.68
2023-04-16T21:05:22.457Z,7.68
2023-04-16T21:07:59.762Z,5.40
2023-04-16T21:10:34.679Z,6.70
2023-04-16T21:13:10.735Z,5.80
2023-04-16T21:15:47.873Z,6.60
2023-04-16T21:18:21.405Z,5.95
2023-04-16T21:20:56.299Z,3.95
2023-04-16T21:23:27.288Z,4.43
2023-04-16T21:26:04.492Z,5.40
2023-04-16T21:28:31.855Z,4.15
2023-04-16T21:31:03.636Z,4.82
2023-04-16T21:33:34.455Z,4.35
2023-04-16T21:36:01.804Z,4.12
2023-04-16T21:38:30.041Z,5.32
2023-04-16T21:41:01.726Z,6.07
2023-04-16T21:43:32.361Z,5.25
2023-04-16T21:46:07.724Z,7.18
2023-04-16T21:48:39.316Z,6.60
2023-04-16T21:51:07.103Z,4.32
2023-04-16T21:53:38.089Z,4.05
2023-04-16T21:56:07.751Z,5.72
2023-04-16T21:58:45.091Z,4.12
2023-04-16T22:01:15.437Z,3.97
2023-04-16T22:03:42.822Z,4.90
2023-04-16T22:06:10.977Z,4.40
2023-04-16T22:08:45.253Z,5.53
2023-04-16T22:11:15.753Z,3.28
2023-04-16T22:13:49.856Z,3.72
2023-04-16T22:16:17.486Z,4.15
2023-04-16T22:18:54.223Z,4.15
2023-04-16T22:21:21.791Z,4.25
2023-04-16T22:23:49.091Z,5.07
2023-04-16T22:26:23.269Z,3.37
2023-04-16T22:28:53.625Z,4.10
2023-04-16T22:31:25.760Z,5.18
2023-04-16T22:33:56.830Z,3.83
2023-04-16T22:36:24.600Z,3.58
2023-04-16T22:38:56.370Z,3.25
2023-04-16T22:41:30.463Z,3.25
2023-04-16T22:44:00.820Z,4.62
2023-04-16T22:46:35.038Z,4.03
2023-04-16T22:49:03.392Z,3.47
2023-04-16T22:51:31.109Z,3.37
2023-04-16T22:54:02.635Z,3.87
2023-04-16T22:56:30.544Z,4.18
2023-04-16T22:59:02.666Z,4.57
2023-04-16T23:01:37.213Z,3.43
2023-04-16T23:04:13.983Z,3.25
2023-04-16T23:06:44.608Z,2.83
2023-04-16T23:09:16.893Z,4.10
2023-04-16T23:11:44.548Z,2.90
2023-04-16T23:14:19.492Z,3.10
2023-04-16T23:16:47.215Z,4.65
2023-04-16T23:19:17.053Z,3.85
2023-04-16T23:21:47.462Z,3.70
2023-04-16T23:24:21.589Z,3.03
2023-04-16T23:26:49.038Z,3.28
2023-04-16T23:29:23.125Z,4.00
2023-04-16T23:32:01.103Z,2.75
2023-04-16T23:34:37.268Z,3.10
2023-04-16T23:37:08.123Z,3.80
2023-04-16T23:39:38.593Z,5.00
2023-04-16T23:42:12.233Z,2.30
2023-04-16T23:44:48.601Z,2.58
2023-04-16T23:47:22.269Z,3.42
2023-04-16T23:49:49.608Z,2.92
2023-04-16T23:52:26.175Z,3.25
2023-04-16T23:54:59.598Z,3.50
2023-04-16T23:57:32.164Z,2.08
